sensor_id;sensor_type;location;lat;lon;timestamp;P1;P2;P0
72031;PMS5003;49185;42.320;23.198;2024-03-17T00:00:26;2871.00;2871.00;2871.00
72031;PMS5003;49185;42.320;23.198;2024-03-17T00:03:12;2863.00;2863.00;2863.00
72031;PMS5003;49185;42.320;23.198;2024-03-17T00:05:58;2871.00;2871.00;2871.00
72031;PMS5003;49185;42.320;23.198;2024-03-17T00:08:44;2801.50;2801.50;2801.50
72031;PMS5003;49185;42.320;23.198;2024-03-17T00:11:30;2788.50;2788.50;2788.50
72031;PMS5003;49185;42.320;23.198;2024-03-17T00:14:15;2867.00;2867.00;2867.00
72031;PMS5003;49185;42.320;23.198;2024-03-17T00:17:01;2828.00;2828.00;2828.00
72031;PMS5003;49185;42.320;23.198;2024-03-17T00:19:47;2847.50;2847.50;2847.50
72031;PMS5003;49185;42.320;23.198;2024-03-17T00:22:32;2859.00;2859.00;2859.00
72031;PMS5003;49185;42.320;23.198;2024-03-17T00:25:18;2863.00;2863.00;2863.00
72031;PMS5003;49185;42.320;23.198;2024-03-17T00:28:04;2865.00;2865.00;2865.00
72031;PMS5003;49185;42.320;23.198;2024-03-17T00:30:50;2847.50;2847.50;2847.50
72031;PMS5003;49185;42.320;23.198;2024-03-17T00:33:36;2837.50;2837.50;2837.50
72031;PMS5003;49185;42.320;23.198;2024-03-17T00:36:21;2833.50;2833.50;2833.50
72031;PMS5003;49185;42.320;23.198;2024-03-17T00:39:07;2816.50;2816.50;2816.50
72031;PMS5003;49185;42.320;23.198;2024-03-17T00:41:53;2867.00;2867.00;2867.00
72031;PMS5003;49185;42.320;23.198;2024-03-17T00:44:38;2839.50;2839.50;2839.50
72031;PMS5003;49185;42.320;23.198;2024-03-17T00:47:27;2867.00;2867.00;2867.00
72031;PMS5003;49185;42.320;23.198;2024-03-17T00:50:12;2835.50;2835.50;2835.50
72031;PMS5003;49185;42.320;23.198;2024-03-17T00:52:58;2839.50;2839.50;2839.50
72031;PMS5003;49185;42.320;23.198;2024-03-17T00:55:44;2835.50;2835.50;2835.50
72031;PMS5003;49185;42.320;23.198;2024-03-17T00:58:39;2863.00;2863.00;2863.00
72031;PMS5003;49185;42.320;23.198;2024-03-17T01:01:25;2861.00;2861.00;2861.00
72031;PMS5003;49185;42.320;23.198;2024-03-17T01:04:10;2831.50;2831.50;2831.50
72031;PMS5003;49185;42.320;23.198;2024-03-17T01:06:56;2843.50;2843.50;2843.50
72031;PMS5003;49185;42.320;23.198;2024-03-17T01:09:42;2859.00;2859.00;2859.00
72031;PMS5003;49185;42.320;23.198;2024-03-17T01:12:27;2871.00;2871.00;2871.00
72031;PMS5003;49185;42.320;23.198;2024-03-17T01:15:13;2871.00;2871.00;2871.00
72031;PMS5003;49185;42.320;23.198;2024-03-17T01:17:59;2855.00;2855.00;2855.00
72031;PMS5003;49185;42.320;23.198;2024-03-17T01:20:44;2875.00;2875.00;2875.00
72031;PMS5003;49185;42.320;23.198;2024-03-17T01:23:30;2863.00;2863.00;2863.00
72031;PMS5003;49185;42.320;23.198;2024-03-17T01:26:16;2863.00;2863.00;2863.00
72031;PMS5003;49185;42.320;23.198;2024-03-17T01:29:01;2867.00;2867.00;2867.00
72031;PMS5003;49185;42.320;23.198;2024-03-17T01:31:47;2887.00;2887.00;2887.00
72031;PMS5003;49185;42.320;23.198;2024-03-17T01:34:33;2891.00;2891.00;2891.00
72031;PMS5003;49185;42.320;23.198;2024-03-17T01:37:21;2855.00;2855.00;2855.00
72031;PMS5003;49185;42.320;23.198;2024-03-17T01:40:07;2873.00;2873.00;2873.00
72031;PMS5003;49185;42.320;23.198;2024-03-17T01:42:53;2847.50;2847.50;2847.50
72031;PMS5003;49185;42.320;23.198;2024-03-17T01:45:39;2851.50;2851.50;2851.50
72031;PMS5003;49185;42.320;23.198;2024-03-17T01:48:25;2879.00;2879.00;2879.00
72031;PMS5003;49185;42.320;23.198;2024-03-17T01:51:11;2861.00;2861.00;2861.00
72031;PMS5003;49185;42.320;23.198;2024-03-17T01:54:00;2849.50;2849.50;2849.50
72031;PMS5003;49185;42.320;23.198;2024-03-17T01:56:46;2883.00;2883.00;2883.00
72031;PMS5003;49185;42.320;23.198;2024-03-17T01:59:32;2887.00;2887.00;2887.00
72031;PMS5003;49185;42.320;23.198;2024-03-17T02:02:18;2887.00;2887.00;2887.00
72031;PMS5003;49185;42.320;23.198;2024-03-17T02:05:04;2881.00;2881.00;2881.00
72031;PMS5003;49185;42.320;23.198;2024-03-17T02:07:50;2871.00;2871.00;2871.00
72031;PMS5003;49185;42.320;23.198;2024-03-17T02:10:36;2867.00;2867.00;2867.00
72031;PMS5003;49185;42.320;23.198;2024-03-17T02:13:22;2841.50;2841.50;2841.50
72031;PMS5003;49185;42.320;23.198;2024-03-17T02:16:08;2871.00;2871.00;2871.00
72031;PMS5003;49185;42.320;23.198;2024-03-17T02:18:54;2867.00;2867.00;2867.00
72031;PMS5003;49185;42.320;23.198;2024-03-17T02:21:40;2867.00;2867.00;2867.00
72031;PMS5003;49185;42.320;23.198;2024-03-17T02:24:26;2839.50;2839.50;2839.50
72031;PMS5003;49185;42.320;23.198;2024-03-17T02:27:12;2849.50;2849.50;2849.50
72031;PMS5003;49185;42.320;23.198;2024-03-17T02:29:58;2837.50;2837.50;2837.50
72031;PMS5003;49185;42.320;23.198;2024-03-17T02:32:44;2863.00;2863.00;2863.00
72031;PMS5003;49185;42.320;23.198;2024-03-17T02:35:36;2863.00;2863.00;2863.00
72031;PMS5003;49185;42.320;23.198;2024-03-17T02:38:22;2839.50;2839.50;2839.50
72031;PMS5003;49185;42.320;23.198;2024-03-17T02:41:08;2810.50;2810.50;2810.50
72031;PMS5003;49185;42.320;23.198;2024-03-17T02:43:53;2843.50;2843.50;2843.50
72031;PMS5003;49185;42.320;23.198;2024-03-17T02:46:39;2812.50;2812.50;2812.50
72031;PMS5003;49185;42.320;23.198;2024-03-17T02:49:25;2822.50;2822.50;2822.50
72031;PMS5003;49185;42.320;23.198;2024-03-17T02:52:11;2824.50;2824.50;2824.50
72031;PMS5003;49185;42.320;23.198;2024-03-17T02:54:57;2824.50;2824.50;2824.50
72031;PMS5003;49185;42.320;23.198;2024-03-17T02:57:43;2863.00;2863.00;2863.00
72031;PMS5003;49185;42.320;23.198;2024-03-17T03:00:29;2849.50;2849.50;2849.50
72031;PMS5003;49185;42.320;23.198;2024-03-17T03:03:15;2861.00;2861.00;2861.00
72031;PMS5003;49185;42.320;23.198;2024-03-17T03:06:01;2843.50;2843.50;2843.50
72031;PMS5003;49185;42.320;23.198;2024-03-17T03:08:47;2845.50;2845.50;2845.50
72031;PMS5003;49185;42.320;23.198;2024-03-17T03:11:32;2867.00;2867.00;2867.00
72031;PMS5003;49185;42.320;23.198;2024-03-17T03:14:19;2863.00;2863.00;2863.00
72031;PMS5003;49185;42.320;23.198;2024-03-17T03:17:05;2863.00;2863.00;2863.00
72031;PMS5003;49185;42.320;23.198;2024-03-17T03:19:50;2867.00;2867.00;2867.00
72031;PMS5003;49185;42.320;23.198;2024-03-17T03:22:36;2859.00;2859.00;2859.00
72031;PMS5003;49185;42.320;23.198;2024-03-17T03:25:22;2820.50;2820.50;2820.50
72031;PMS5003;49185;42.320;23.198;2024-03-17T03:28:08;2857.00;2857.00;2857.00
72031;PMS5003;49185;42.320;23.198;2024-03-17T03:30:53;2835.50;2835.50;2835.50
72031;PMS5003;49185;42.320;23.198;2024-03-17T03:33:40;2837.50;2837.50;2837.50
72031;PMS5003;49185;42.320;23.198;2024-03-17T03:36:26;2833.50;2833.50;2833.50
72031;PMS5003;49185;42.320;23.198;2024-03-17T03:39:11;2853.00;2853.00;2853.00
72031;PMS5003;49185;42.320;23.198;2024-03-17T03:41:57;2841.50;2841.50;2841.50
72031;PMS5003;49185;42.320;23.198;2024-03-17T03:44:43;2859.00;2859.00;2859.00
72031;PMS5003;49185;42.320;23.198;2024-03-17T03:47:31;2833.50;2833.50;2833.50
72031;PMS5003;49185;42.320;23.198;2024-03-17T03:50:19;2822.50;2822.50;2822.50
72031;PMS5003;49185;42.320;23.198;2024-03-17T03:53:06;2873.00;2873.00;2873.00
72031;PMS5003;49185;42.320;23.198;2024-03-17T03:55:51;2875.00;2875.00;2875.00
72031;PMS5003;49185;42.320;23.198;2024-03-17T03:58:37;2875.00;2875.00;2875.00
72031;PMS5003;49185;42.320;23.198;2024-03-17T04:01:24;2875.00;2875.00;2875.00
72031;PMS5003;49185;42.320;23.198;2024-03-17T04:04:10;2875.00;2875.00;2875.00
72031;PMS5003;49185;42.320;23.198;2024-03-17T04:06:56;2871.00;2871.00;2871.00
72031;PMS5003;49185;42.320;23.198;2024-03-17T04:09:41;2851.50;2851.50;2851.50
72031;PMS5003;49185;42.320;23.198;2024-03-17T04:12:27;2865.00;2865.00;2865.00
72031;PMS5003;49185;42.320;23.198;2024-03-17T04:15:13;2875.00;2875.00;2875.00
72031;PMS5003;49185;42.320;23.198;2024-03-17T04:17:59;2859.00;2859.00;2859.00
72031;PMS5003;49185;42.320;23.198;2024-03-17T04:20:44;2849.50;2849.50;2849.50
72031;PMS5003;49185;42.320;23.198;2024-03-17T04:23:30;2863.00;2863.00;2863.00
72031;PMS5003;49185;42.320;23.198;2024-03-17T04:26:16;2861.00;2861.00;2861.00
72031;PMS5003;49185;42.320;23.198;2024-03-17T04:29:01;2861.00;2861.00;2861.00
72031;PMS5003;49185;42.320;23.198;2024-03-17T04:31:47;2859.00;2859.00;2859.00
72031;PMS5003;49185;42.320;23.198;2024-03-17T04:34:33;2835.50;2835.50;2835.50
72031;PMS5003;49185;42.320;23.198;2024-03-17T04:37:18;2839.50;2839.50;2839.50
72031;PMS5003;49185;42.320;23.198;2024-03-17T04:40:04;2855.00;2855.00;2855.00
72031;PMS5003;49185;42.320;23.198;2024-03-17T04:42:51;2851.50;2851.50;2851.50
72031;PMS5003;49185;42.320;23.198;2024-03-17T04:45:36;2845.50;2845.50;2845.50
72031;PMS5003;49185;42.320;23.198;2024-03-17T04:48:22;2843.50;2843.50;2843.50
72031;PMS5003;49185;42.320;23.198;2024-03-17T04:51:08;2843.50;2843.50;2843.50
72031;PMS5003;49185;42.320;23.198;2024-03-17T04:54:01;2807.00;2807.00;2807.00
72031;PMS5003;49185;42.320;23.198;2024-03-17T04:56:46;2816.50;2816.50;2816.50
72031;PMS5003;49185;42.320;23.198;2024-03-17T04:59:33;2805.00;2805.00;2805.00
72031;PMS5003;49185;42.320;23.198;2024-03-17T05:02:20;2828.00;2828.00;2828.00
72031;PMS5003;49185;42.320;23.198;2024-03-17T05:05:06;2818.50;2818.50;2818.50
72031;PMS5003;49185;42.320;23.198;2024-03-17T05:07:52;2810.50;2810.50;2810.50
72031;PMS5003;49185;42.320;23.198;2024-03-17T05:10:38;2809.00;2809.00;2809.00
72031;PMS5003;49185;42.320;23.198;2024-03-17T05:13:24;2810.50;2810.50;2810.50
72031;PMS5003;49185;42.320;23.198;2024-03-17T05:16:13;2853.00;2853.00;2853.00
72031;PMS5003;49185;42.320;23.198;2024-03-17T05:18:58;2843.50;2843.50;2843.50
72031;PMS5003;49185;42.320;23.198;2024-03-17T05:21:44;2865.00;2865.00;2865.00
72031;PMS5003;49185;42.320;23.198;2024-03-17T05:24:31;2851.50;2851.50;2851.50
72031;PMS5003;49185;42.320;23.198;2024-03-17T05:27:16;2859.00;2859.00;2859.00
72031;PMS5003;49185;42.320;23.198;2024-03-17T05:30:02;2875.00;2875.00;2875.00
72031;PMS5003;49185;42.320;23.198;2024-03-17T05:32:48;2877.00;2877.00;2877.00
72031;PMS5003;49185;42.320;23.198;2024-03-17T05:35:34;2873.00;2873.00;2873.00
72031;PMS5003;49185;42.320;23.198;2024-03-17T05:38:20;2919.00;2919.00;2919.00
72031;PMS5003;49185;42.320;23.198;2024-03-17T05:41:06;2909.00;2909.00;2909.00
72031;PMS5003;49185;42.320;23.198;2024-03-17T05:43:53;2901.00;2901.00;2901.00
72031;PMS5003;49185;42.320;23.198;2024-03-17T05:46:39;2945.50;2945.50;2945.50
72031;PMS5003;49185;42.320;23.198;2024-03-17T05:49:24;2956.50;2956.50;2956.50
72031;PMS5003;49185;42.320;23.198;2024-03-17T05:52:10;2965.00;2965.00;2965.00
72031;PMS5003;49185;42.320;23.198;2024-03-17T05:54:56;2977.50;2977.50;2977.50
72031;PMS5003;49185;42.320;23.198;2024-03-17T05:57:42;2964.50;2964.50;2964.50
72031;PMS5003;49185;42.320;23.198;2024-03-17T06:00:27;3020.50;3020.50;3020.50
72031;PMS5003;49185;42.320;23.198;2024-03-17T06:03:13;3040.50;3040.50;3040.50
72031;PMS5003;49185;42.320;23.198;2024-03-17T06:05:59;3025.50;3025.50;3025.50
72031;PMS5003;49185;42.320;23.198;2024-03-17T06:08:44;3049.50;3049.50;3049.50
72031;PMS5003;49185;42.320;23.198;2024-03-17T06:11:30;3047.50;3047.50;3047.50
72031;PMS5003;49185;42.320;23.198;2024-03-17T06:14:16;3065.00;3065.00;3065.00
72031;PMS5003;49185;42.320;23.198;2024-03-17T06:17:01;3125.00;3125.00;3125.00
72031;PMS5003;49185;42.320;23.198;2024-03-17T06:19:47;3106.50;3106.50;3106.50
72031;PMS5003;49185;42.320;23.198;2024-03-17T06:22:33;3170.50;3170.50;3170.50
72031;PMS5003;49185;42.320;23.198;2024-03-17T06:25:18;3160.50;3160.50;3160.50
72031;PMS5003;49185;42.320;23.198;2024-03-17T06:28:04;3189.50;3189.50;3189.50
72031;PMS5003;49185;42.320;23.198;2024-03-17T06:30:57;2986.00;2986.00;2986.00
72031;PMS5003;49185;42.320;23.198;2024-03-17T06:33:44;3014.00;3014.00;3014.00
72031;PMS5003;49185;42.320;23.198;2024-03-17T06:36:29;2998.50;2998.50;2998.50
72031;PMS5003;49185;42.320;23.198;2024-03-17T06:39:15;3016.50;3016.50;3016.50
72031;PMS5003;49185;42.320;23.198;2024-03-17T06:42:01;3127.00;3127.00;3127.00
72031;PMS5003;49185;42.320;23.198;2024-03-17T06:44:46;3047.00;3047.00;3047.00
72031;PMS5003;49185;42.320;23.198;2024-03-17T06:47:32;2983.50;2983.50;2983.50
72031;PMS5003;49185;42.320;23.198;2024-03-17T06:50:17;2992.50;2992.50;2992.50
72031;PMS5003;49185;42.320;23.198;2024-03-17T06:53:03;3023.00;3023.00;3023.00
72031;PMS5003;49185;42.320;23.198;2024-03-17T06:55:55;3014.00;3014.00;3014.00
72031;PMS5003;49185;42.320;23.198;2024-03-17T06:58:42;3008.00;3008.00;3008.00
72031;PMS5003;49185;42.320;23.198;2024-03-17T07:01:29;3199.50;3199.50;3199.50
72031;PMS5003;49185;42.320;23.198;2024-03-17T07:04:15;3229.00;3229.00;3229.00
72031;PMS5003;49185;42.320;23.198;2024-03-17T07:07:00;3209.50;3209.50;3209.50
72031;PMS5003;49185;42.320;23.198;2024-03-17T07:09:46;3301.00;3301.00;3301.00
72031;PMS5003;49185;42.320;23.198;2024-03-17T07:12:32;3221.50;3221.50;3221.50
72031;PMS5003;49185;42.320;23.198;2024-03-17T07:15:18;3207.00;3207.00;3207.00
72031;PMS5003;49185;42.320;23.198;2024-03-17T07:18:03;3214.00;3214.00;3214.00
72031;PMS5003;49185;42.320;23.198;2024-03-17T07:20:49;3016.50;3016.50;3016.50
72031;PMS5003;49185;42.320;23.198;2024-03-17T07:23:35;3149.00;3149.00;3149.00
72031;PMS5003;49185;42.320;23.198;2024-03-17T07:26:21;3005.50;3005.50;3005.50
72031;PMS5003;49185;42.320;23.198;2024-03-17T07:29:07;3005.50;3005.50;3005.50
72031;PMS5003;49185;42.320;23.198;2024-03-17T07:31:53;3030.00;3030.00;3030.00
72031;PMS5003;49185;42.320;23.198;2024-03-17T07:34:38;3058.50;3058.50;3058.50
72031;PMS5003;49185;42.320;23.198;2024-03-17T07:37:24;3065.00;3065.00;3065.00
72031;PMS5003;49185;42.320;23.198;2024-03-17T07:40:10;3095.00;3095.00;3095.00
72031;PMS5003;49185;42.320;23.198;2024-03-17T07:42:56;3288.00;3288.00;3288.00
72031;PMS5003;49185;42.320;23.198;2024-03-17T07:45:41;3118.00;3118.00;3118.00
72031;PMS5003;49185;42.320;23.198;2024-03-17T07:48:27;3111.00;3111.00;3111.00
72031;PMS5003;49185;42.320;23.198;2024-03-17T07:51:14;3134.00;3134.00;3134.00
72031;PMS5003;49185;42.320;23.198;2024-03-17T07:54:00;3160.50;3160.50;3160.50
72031;PMS5003;49185;42.320;23.198;2024-03-17T07:56:46;3141.50;3141.50;3141.50
72031;PMS5003;49185;42.320;23.198;2024-03-17T07:59:32;3165.50;3165.50;3165.50
72031;PMS5003;49185;42.320;23.198;2024-03-17T08:02:17;3160.50;3160.50;3160.50
72031;PMS5003;49185;42.320;23.198;2024-03-17T08:05:03;3184.50;3184.50;3184.50
72031;PMS5003;49185;42.320;23.198;2024-03-17T08:07:49;3204.50;3204.50;3204.50
72031;PMS5003;49185;42.320;23.198;2024-03-17T08:10:37;3168.00;3168.00;3168.00
72031;PMS5003;49185;42.320;23.198;2024-03-17T08:13:23;3204.50;3204.50;3204.50
72031;PMS5003;49185;42.320;23.198;2024-03-17T08:16:09;3175.00;3175.00;3175.00
72031;PMS5003;49185;42.320;23.198;2024-03-17T08:18:55;3170.50;3170.50;3170.50
72031;PMS5003;49185;42.320;23.198;2024-03-17T08:21:41;3170.50;3170.50;3170.50
72031;PMS5003;49185;42.320;23.198;2024-03-17T08:24:28;3192.00;3192.00;3192.00
72031;PMS5003;49185;42.320;23.198;2024-03-17T08:27:13;3170.50;3170.50;3170.50
72031;PMS5003;49185;42.320;23.198;2024-03-17T08:29:59;3146.50;3146.50;3146.50
72031;PMS5003;49185;42.320;23.198;2024-03-17T08:32:45;3136.50;3136.50;3136.50
72031;PMS5003;49185;42.320;23.198;2024-03-17T08:35:30;3156.00;3156.00;3156.00
72031;PMS5003;49185;42.320;23.198;2024-03-17T08:38:16;3194.50;3194.50;3194.50
72031;PMS5003;49185;42.320;23.198;2024-03-17T08:41:02;3216.50;3216.50;3216.50
72031;PMS5003;49185;42.320;23.198;2024-03-17T08:43:49;3219.00;3219.00;3219.00
72031;PMS5003;49185;42.320;23.198;2024-03-17T08:46:35;3170.50;3170.50;3170.50
72031;PMS5003;49185;42.320;23.198;2024-03-17T08:49:21;3234.00;3234.00;3234.00
72031;PMS5003;49185;42.320;23.198;2024-03-17T08:52:06;3221.50;3221.50;3221.50
72031;PMS5003;49185;42.320;23.198;2024-03-17T08:54:52;3239.00;3239.00;3239.00
72031;PMS5003;49185;42.320;23.198;2024-03-17T08:57:38;3244.00;3244.00;3244.00
72031;PMS5003;49185;42.320;23.198;2024-03-17T09:00:24;3129.50;3129.50;3129.50
72031;PMS5003;49185;42.320;23.198;2024-03-17T09:03:09;3149.00;3149.00;3149.00
72031;PMS5003;49185;42.320;23.198;2024-03-17T09:05:55;3224.00;3224.00;3224.00
72031;PMS5003;49185;42.320;23.198;2024-03-17T09:08:41;3219.00;3219.00;3219.00
72031;PMS5003;49185;42.320;23.198;2024-03-17T09:11:27;3189.50;3189.50;3189.50
72031;PMS5003;49185;42.320;23.198;2024-03-17T09:14:13;3226.50;3226.50;3226.50
72031;PMS5003;49185;42.320;23.198;2024-03-17T09:16:58;3221.50;3221.50;3221.50
72031;PMS5003;49185;42.320;23.198;2024-03-17T09:19:44;3254.50;3254.50;3254.50
72031;PMS5003;49185;42.320;23.198;2024-03-17T09:22:30;3241.50;3241.50;3241.50
72031;PMS5003;49185;42.320;23.198;2024-03-17T09:25:16;3280.50;3280.50;3280.50
72031;PMS5003;49185;42.320;23.198;2024-03-17T09:28:01;3104.00;3104.00;3104.00
72031;PMS5003;49185;42.320;23.198;2024-03-17T09:30:47;3306.00;3306.00;3306.00
72031;PMS5003;49185;42.320;23.198;2024-03-17T09:33:33;3311.50;3311.50;3311.50
72031;PMS5003;49185;42.320;23.198;2024-03-17T09:36:20;3034.00;3034.00;3034.00
72031;PMS5003;49185;42.320;23.198;2024-03-17T09:39:06;3023.00;3023.00;3023.00
72031;PMS5003;49185;42.320;23.198;2024-03-17T09:41:51;3021.00;3021.00;3021.00
72031;PMS5003;49185;42.320;23.198;2024-03-17T09:44:37;3021.00;3021.00;3021.00
72031;PMS5003;49185;42.320;23.198;2024-03-17T09:47:24;3280.50;3280.50;3280.50
72031;PMS5003;49185;42.320;23.198;2024-03-17T09:50:12;3272.00;3272.00;3272.00
72031;PMS5003;49185;42.320;23.198;2024-03-17T09:52:59;3252.00;3252.00;3252.00
72031;PMS5003;49185;42.320;23.198;2024-03-17T09:55:45;3259.50;3259.50;3259.50
72031;PMS5003;49185;42.320;23.198;2024-03-17T09:58:31;3314.50;3314.50;3314.50
72031;PMS5003;49185;42.320;23.198;2024-03-17T10:01:17;3049.50;3049.50;3049.50
72031;PMS5003;49185;42.320;23.198;2024-03-17T10:04:03;3317.00;3317.00;3317.00
72031;PMS5003;49185;42.320;23.198;2024-03-17T10:06:49;3316.50;3316.50;3316.50
72031;PMS5003;49185;42.320;23.198;2024-03-17T10:09:35;3295.50;3295.50;3295.50
72031;PMS5003;49185;42.320;23.198;2024-03-17T10:12:27;3290.50;3290.50;3290.50
72031;PMS5003;49185;42.320;23.198;2024-03-17T10:15:14;3306.00;3306.00;3306.00
72031;PMS5003;49185;42.320;23.198;2024-03-17T10:17:59;3277.50;3277.50;3277.50
72031;PMS5003;49185;42.320;23.198;2024-03-17T10:20:45;3322.00;3322.00;3322.00
72031;PMS5003;49185;42.320;23.198;2024-03-17T10:23:31;3277.50;3277.50;3277.50
72031;PMS5003;49185;42.320;23.198;2024-03-17T10:26:16;3194.50;3194.50;3194.50
72031;PMS5003;49185;42.320;23.198;2024-03-17T10:29:02;3194.50;3194.50;3194.50
72031;PMS5003;49185;42.320;23.198;2024-03-17T10:31:48;3290.50;3290.50;3290.50
72031;PMS5003;49185;42.320;23.198;2024-03-17T10:34:34;3221.50;3221.50;3221.50
72031;PMS5003;49185;42.320;23.198;2024-03-17T10:37:20;3252.00;3252.00;3252.00
72031;PMS5003;49185;42.320;23.198;2024-03-17T10:40:06;3137.00;3137.00;3137.00
72031;PMS5003;49185;42.320;23.198;2024-03-17T10:42:55;3264.50;3264.50;3264.50
72031;PMS5003;49185;42.320;23.198;2024-03-17T10:45:43;3264.50;3264.50;3264.50
72031;PMS5003;49185;42.320;23.198;2024-03-17T10:48:31;3293.00;3293.00;3293.00
72031;PMS5003;49185;42.320;23.198;2024-03-17T10:51:18;3257.00;3257.00;3257.00
72031;PMS5003;49185;42.320;23.198;2024-03-17T10:54:04;3267.00;3267.00;3267.00
72031;PMS5003;49185;42.320;23.198;2024-03-17T10:56:50;3244.00;3244.00;3244.00
72031;PMS5003;49185;42.320;23.198;2024-03-17T10:59:39;3236.50;3236.50;3236.50
72031;PMS5003;49185;42.320;23.198;2024-03-17T11:02:27;3231.50;3231.50;3231.50
72031;PMS5003;49185;42.320;23.198;2024-03-17T11:08:07;3175.50;3175.50;3175.50
72031;PMS5003;49185;42.320;23.198;2024-03-17T11:11:00;3199.50;3199.50;3199.50
72031;PMS5003;49185;42.320;23.198;2024-03-17T11:13:47;3189.50;3189.50;3189.50
72031;PMS5003;49185;42.320;23.198;2024-03-17T11:16:32;3257.00;3257.00;3257.00
72031;PMS5003;49185;42.320;23.198;2024-03-17T11:19:18;3219.00;3219.00;3219.00
72031;PMS5003;49185;42.320;23.198;2024-03-17T11:28:12;3139.00;3139.00;3139.00
72031;PMS5003;49185;42.320;23.198;2024-03-17T11:34:32;3257.00;3257.00;3257.00
72031;PMS5003;49185;42.320;23.198;2024-03-17T11:38:03;3109.00;3109.00;3109.00
72031;PMS5003;49185;42.320;23.198;2024-03-17T11:40:29;3314.00;3314.00;3314.00
72031;PMS5003;49185;42.320;23.198;2024-03-17T11:43:16;3316.50;3316.50;3316.50
72031;PMS5003;49185;42.320;23.198;2024-03-17T11:46:02;3102.00;3102.00;3102.00
72031;PMS5003;49185;42.320;23.198;2024-03-17T11:48:49;3104.00;3104.00;3104.00
72031;PMS5003;49185;42.320;23.198;2024-03-17T11:51:34;3134.50;3134.50;3134.50
72031;PMS5003;49185;42.320;23.198;2024-03-17T11:54:24;3120.00;3120.00;3120.00
72031;PMS5003;49185;42.320;23.198;2024-03-17T11:57:14;3146.50;3146.50;3146.50
72031;PMS5003;49185;42.320;23.198;2024-03-17T12:00:15;3244.00;3244.00;3244.00
72031;PMS5003;49185;42.320;23.198;2024-03-17T12:03:04;3241.50;3241.50;3241.50
72031;PMS5003;49185;42.320;23.198;2024-03-17T12:05:50;3249.50;3249.50;3249.50
72031;PMS5003;49185;42.320;23.198;2024-03-17T12:08:36;3199.50;3199.50;3199.50
72031;PMS5003;49185;42.320;23.198;2024-03-17T12:11:22;3168.00;3168.00;3168.00
72031;PMS5003;49185;42.320;23.198;2024-03-17T12:14:14;3192.00;3192.00;3192.00
72031;PMS5003;49185;42.320;23.198;2024-03-17T12:17:02;3194.50;3194.50;3194.50
72031;PMS5003;49185;42.320;23.198;2024-03-17T12:19:55;3202.00;3202.00;3202.00
72031;PMS5003;49185;42.320;23.198;2024-03-17T12:22:41;3194.50;3194.50;3194.50
72031;PMS5003;49185;42.320;23.198;2024-03-17T12:25:26;3184.50;3184.50;3184.50
72031;PMS5003;49185;42.320;23.198;2024-03-17T12:28:15;3221.50;3221.50;3221.50
72031;PMS5003;49185;42.320;23.198;2024-03-17T12:31:02;3158.00;3158.00;3158.00
72031;PMS5003;49185;42.320;23.198;2024-03-17T12:33:48;3239.00;3239.00;3239.00
72031;PMS5003;49185;42.320;23.198;2024-03-17T12:36:33;3148.50;3148.50;3148.50
72031;PMS5003;49185;42.320;23.198;2024-03-17T12:44:56;3108.50;3108.50;3108.50
72031;PMS5003;49185;42.320;23.198;2024-03-17T12:47:46;3115.50;3115.50;3115.50
72031;PMS5003;49185;42.320;23.198;2024-03-17T12:50:33;3111.00;3111.00;3111.00
72031;PMS5003;49185;42.320;23.198;2024-03-17T12:53:19;3099.50;3099.50;3099.50
72031;PMS5003;49185;42.320;23.198;2024-03-17T12:56:05;3078.50;3078.50;3078.50
72031;PMS5003;49185;42.320;23.198;2024-03-17T12:58:50;3097.50;3097.50;3097.50
72031;PMS5003;49185;42.320;23.198;2024-03-17T13:01:36;3074.50;3074.50;3074.50
72031;PMS5003;49185;42.320;23.198;2024-03-17T13:04:22;3092.50;3092.50;3092.50
72031;PMS5003;49185;42.320;23.198;2024-03-17T13:07:12;3069.50;3069.50;3069.50
72031;PMS5003;49185;42.320;23.198;2024-03-17T13:09:58;3090.00;3090.00;3090.00
72031;PMS5003;49185;42.320;23.198;2024-03-17T13:12:44;3314.00;3314.00;3314.00
72031;PMS5003;49185;42.320;23.198;2024-03-17T13:15:30;3067.00;3067.00;3067.00
72031;PMS5003;49185;42.320;23.198;2024-03-17T13:18:17;3314.00;3314.00;3314.00
72031;PMS5003;49185;42.320;23.198;2024-03-17T13:21:04;3054.00;3054.00;3054.00
72031;PMS5003;49185;42.320;23.198;2024-03-17T13:23:49;3067.50;3067.50;3067.50
72031;PMS5003;49185;42.320;23.198;2024-03-17T13:26:35;3045.00;3045.00;3045.00
72031;PMS5003;49185;42.320;23.198;2024-03-17T13:29:21;3316.50;3316.50;3316.50
72031;PMS5003;49185;42.320;23.198;2024-03-17T13:32:06;3249.50;3249.50;3249.50
72031;PMS5003;49185;42.320;23.198;2024-03-17T13:34:53;3314.00;3314.00;3314.00
72031;PMS5003;49185;42.320;23.198;2024-03-17T13:37:39;3306.00;3306.00;3306.00
72031;PMS5003;49185;42.320;23.198;2024-03-17T13:40:24;3301.00;3301.00;3301.00
72031;PMS5003;49185;42.320;23.198;2024-03-17T13:43:10;3175.00;3175.00;3175.00
72031;PMS5003;49185;42.320;23.198;2024-03-17T13:45:56;3301.00;3301.00;3301.00
72031;PMS5003;49185;42.320;23.198;2024-03-17T13:48:42;3241.50;3241.50;3241.50
72031;PMS5003;49185;42.320;23.198;2024-03-17T13:51:27;3290.50;3290.50;3290.50
72031;PMS5003;49185;42.320;23.198;2024-03-17T13:54:13;3244.50;3244.50;3244.50
72031;PMS5003;49185;42.320;23.198;2024-03-17T13:56:59;3134.50;3134.50;3134.50
72031;PMS5003;49185;42.320;23.198;2024-03-17T13:59:44;3040.50;3040.50;3040.50
72031;PMS5003;49185;42.320;23.198;2024-03-17T14:02:30;3049.50;3049.50;3049.50
72031;PMS5003;49185;42.320;23.198;2024-03-17T14:05:20;3045.00;3045.00;3045.00
72031;PMS5003;49185;42.320;23.198;2024-03-17T14:08:07;3056.00;3056.00;3056.00
72031;PMS5003;49185;42.320;23.198;2024-03-17T14:10:52;3047.50;3047.50;3047.50
72031;PMS5003;49185;42.320;23.198;2024-03-17T14:13:38;3306.00;3306.00;3306.00
72031;PMS5003;49185;42.320;23.198;2024-03-17T14:16:24;3042.50;3042.50;3042.50
72031;PMS5003;49185;42.320;23.198;2024-03-17T14:19:09;3054.00;3054.00;3054.00
72031;PMS5003;49185;42.320;23.198;2024-03-17T14:21:56;3052.00;3052.00;3052.00
72031;PMS5003;49185;42.320;23.198;2024-03-17T14:24:41;3269.50;3269.50;3269.50